sensor_id;sensor_type;location;lat;lon;timestamp;temperature;humidity
20242;DHT22;10279;46.388;8.116;2022-08-04T21:35:50;26.60;76.70
20242;DHT22;10279;46.388;8.116;2022-08-04T21:38:21;26.60;77.80
20242;DHT22;10279;46.388;8.116;2022-08-04T21:40:55;26.30;78.30
20242;DHT22;10279;46.388;8.116;2022-08-04T21:43:24;26.20;78.70
20242;DHT22;10279;46.388;8.116;2022-08-04T21:45:54;26.10;78.70
20242;DHT22;10279;46.388;8.116;2022-08-04T21:48:23;26.00;79.80
20242;DHT22;10279;46.388;8.116;2022-08-04T22:14:16;24.00;99.90
20242;DHT22;10279;46.388;8.116;2022-08-04T22:16:54;25.00;99.90
20242;DHT22;10279;46.388;8.116;2022-08-04T22:19:22;24.40;91.60
20242;DHT22;10279;46.388;8.116;2022-08-04T22:22:07;24.00;92.00
20242;DHT22;10279;46.388;8.116;2022-08-04T22:24:38;23.90;92.60
20242;DHT22;10279;46.388;8.116;2022-08-04T22:27:09;23.90;92.60
20242;DHT22;10279;46.388;8.116;2022-08-04T22:29:37;24.00;92.80
20242;DHT22;10279;46.388;8.116;2022-08-04T22:32:08;23.90;92.60
20242;DHT22;10279;46.388;8.116;2022-08-04T22:34:37;23.60;94.00
20242;DHT22;10279;46.388;8.116;2022-08-04T22:37:19;23.40;95.30
20242;DHT22;10279;46.388;8.116;2022-08-04T22:40:02;23.00;97.10
20242;DHT22;10279;46.388;8.116;2022-08-04T22:42:30;22.90;99.90
20242;DHT22;10279;46.388;8.116;2022-08-04T22:44:57;22.60;99.90
20242;DHT22;10279;46.388;8.116;2022-08-04T22:47:24;22.40;99.90
20242;DHT22;10279;46.388;8.116;2022-08-04T22:49:56;22.20;99.90
20242;DHT22;10279;46.388;8.116;2022-08-04T22:52:43;22.00;99.90
20242;DHT22;10279;46.388;8.116;2022-08-04T22:55:21;21.90;99.90
20242;DHT22;10279;46.388;8.116;2022-08-04T22:57:51;21.70;99.90
20242;DHT22;10279;46.388;8.116;2022-08-04T23:00:31;21.80;99.90
20242;DHT22;10279;46.388;8.116;2022-08-04T23:02:58;21.90;99.90
20242;DHT22;10279;46.388;8.116;2022-08-04T23:05:25;22.00;99.90
20242;DHT22;10279;46.388;8.116;2022-08-04T23:08:01;22.00;99.90
20242;DHT22;10279;46.388;8.116;2022-08-04T23:10:31;22.00;99.90
20242;DHT22;10279;46.388;8.116;2022-08-04T23:12:58;22.10;99.90
20242;DHT22;10279;46.388;8.116;2022-08-04T23:15:30;21.90;99.90
20242;DHT22;10279;46.388;8.116;2022-08-04T23:17:59;21.70;99.90
20242;DHT22;10279;46.388;8.116;2022-08-04T23:20:26;21.70;99.90
20242;DHT22;10279;46.388;8.116;2022-08-04T23:23:05;21.80;99.90
20242;DHT22;10279;46.388;8.116;2022-08-04T23:25:43;21.80;99.90
20242;DHT22;10279;46.388;8.116;2022-08-04T23:28:31;22.00;99.90
20242;DHT22;10279;46.388;8.116;2022-08-04T23:30:58;22.20;99.90
20242;DHT22;10279;46.388;8.116;2022-08-04T23:33:27;22.20;99.90
20242;DHT22;10279;46.388;8.116;2022-08-04T23:36:15;22.10;99.90
20242;DHT22;10279;46.388;8.116;2022-08-04T23:38:42;22.20;99.90
20242;DHT22;10279;46.388;8.116;2022-08-04T23:41:12;22.10;99.90
20242;DHT22;10279;46.388;8.116;2022-08-04T23:43:43;22.50;99.90
20242;DHT22;10279;46.388;8.116;2022-08-04T23:46:23;22.50;99.90
20242;DHT22;10279;46.388;8.116;2022-08-04T23:56:31;23.10;99.90
20242;DHT22;10279;46.388;8.116;2022-08-04T23:58:58;23.20;99.90
